Time;durP1;ratioP1;P1;durP2;ratioP2;P2;SDS_P1;SDS_P2;PMS_P1;PMS_P2;Temp;Humidity;BMP_temperature;BMP_pressure;BME280_temperature;BME280_humidity;BME280_pressure;Samples;Min_cycle;Max_cycle;Signal;HPM_P1;HPM_P2
2022/09/13 07:01:43;;;;;;;;;;;;;;;18.29;48.25;99760.13;5174974;27;21239;31
2022/09/13 07:04:14;;;;;;;;;;;;;;;17.98;47.71;99765.09;4330618;33;34005;-87
2022/09/13 07:06:42;;;;;;;;;;;;;;;18.74;46.04;99762.91;4321727;33;32646;-87
2022/09/13 07:09:11;;;;;;;;;;;;;;;18.31;45.88;99769.72;4321612;33;32418;-87
2022/09/13 07:11:40;;;;;;;;;;;;;;;18.78;44.44;99773.25;4334263;33;34923;-87
2022/09/13 07:14:08;;;;;;;;;;;;;;;18.58;44.48;99774.78;4321538;33;33382;-87
2022/09/13 07:16:36;;;;;;;;;;;;;;;19.06;43.95;99769.25;4321669;33;33702;-87
2022/09/13 07:19:05;;;;;;;;;;;;;;;18.91;43.74;99765.97;4321561;33;31868;-87
2022/09/13 07:21:34;;;;;;;;;;;;;;;18.82;45.42;99771.22;4321500;33;33208;-86
2022/09/13 07:24:09;;;;;;;;;;;;;;;19.27;44.16;99777.41;4321702;33;33109;-87
2022/09/13 07:26:38;;;;;;;;;;;;;;;19.02;44.18;99775.81;4356323;32;34573;-86
2022/09/13 07:29:21;;;;;;;;;;;;;;;19.10;44.96;99780.59;4335616;33;35158;-86
2022/09/13 07:31:50;;;;;;;;;;;;;;;19.60;43.38;99779.22;4334041;33;34240;-87
2022/09/13 07:34:19;;;;;;;;;;;;;;;19.56;43.39;99772.41;4333777;33;33822;-86
2022/09/13 07:36:47;;;;;;;;;;;;;;;19.45;43.98;99773.25;4321976;33;34788;-87
2022/09/13 07:39:16;;;;;;;;;;;;;;;19.62;42.80;99765.72;4320818;33;33036;-87
2022/09/13 07:41:50;;;;;;;;;;;;;;;20.08;42.31;99761.88;4322562;33;33178;-86
2022/09/13 07:44:18;;;;;;;;;;;;;;;19.81;43.46;99771.25;4321445;33;33759;-87
2022/09/13 07:46:46;;;;;;;;;;;;;;;20.39;43.83;99766.38;4321233;33;33607;-87
2022/09/13 07:49:19;;;;;;;;;;;;;;;20.33;42.76;99766.06;4322223;33;32693;-86
2022/09/13 07:51:50;;;;;;;;;;;;;;;20.24;42.72;99769.50;4333687;33;33157;-87
2022/09/13 07:54:18;;;;;;;;;;;;;;;20.03;43.47;99778.34;4333642;33;34103;-87
2022/09/13 07:56:49;;;;;;;;;;;;;;;19.72;43.18;99771.16;4333671;33;34484;-87
2022/09/13 07:59:18;;;;;;;;;;;;;;;20.10;42.87;99771.50;4335514;33;33229;-87
2022/09/13 08:01:47;;;;;;;;;;;;;;;19.96;42.61;99769.12;4335889;33;34030;-87
2022/09/13 08:04:17;;;;;;;;;;;;;;;19.97;42.04;99773.50;4335474;33;33525;-86
2022/09/13 08:06:49;;;;;;;;;;;;;;;19.88;43.54;99768.91;4331474;33;33323;-86
2022/09/13 08:09:18;;;;;;;;;;;;;;;20.16;43.20;99768.31;4334858;33;34120;-86
2022/09/13 08:11:47;;;;;;;;;;;;;;;20.24;42.34;99767.69;4323895;33;32694;-86
2022/09/13 08:14:19;;;;;;;;;;;;;;;20.40;42.17;99772.56;4335688;33;34665;-87
2022/09/13 08:16:48;;;;;;;;;;;;;;;20.37;42.69;99775.53;4323640;33;33624;-87
2022/09/13 08:19:17;;;;;;;;;;;;;;;20.37;42.94;99775.53;4335138;33;32716;-87
2022/09/13 08:21:45;;;;;;;;;;;;;;;20.48;42.13;99770.13;4320818;33;32827;-87
2022/09/13 08:24:17;;;;;;;;;;;;;;;20.92;41.57;99771.66;4335403;33;34078;-87
2022/09/13 08:26:56;;;;;;;;;;;;;;;20.94;42.02;99772.41;4336046;33;35289;-87
2022/09/13 08:29:24;;;;;;;;;;;;;;;21.11;41.74;99764.69;4347683;33;34074;-87
2022/09/13 08:31:53;;;;;;;;;;;;;;;21.20;41.57;99762.03;4335393;33;33056;-87
2022/09/13 08:34:23;;;;;;;;;;;;;;;21.70;40.64;99756.69;4335824;33;34052;-87
2022/09/13 08:36:51;;;;;;;;;;;;;;;21.69;40.81;99760.34;4335604;33;34827;-87
2022/09/13 08:39:18;;;;;;;;;;;;;;;21.81;40.25;99765.63;4323373;33;33131;-87
2022/09/13 08:41:59;;;;;;;;;;;;;;;21.94;39.65;99758.13;4334718;33;34996;-87
2022/09/13 08:44:27;;;;;;;;;;;;;;;22.34;38.96;99763.38;4323291;33;33195;-88
2022/09/13 08:46:59;;;;;;;;;;;;;;;22.39;38.90;99762.94;4335447;33;33234;-87
2022/09/13 08:49:33;;;;;;;;;;;;;;;21.66;39.69;99763.34;4323511;33;32652;-88
2022/09/13 08:52:11;;;;;;;;;;;;;;;21.93;38.84;99759.97;4320682;33;33067;-87
2022/09/13 08:54:39;;;;;;;;;;;;;;;22.28;38.30;99760.44;4321782;33;32869;-87
2022/09/13 08:57:13;;;;;;;;;;;;;;;22.43;39.61;99754.44;4357238;32;34239;-87
2022/09/13 09:00:04;;;;;;;;;;;;;;;22.49;39.65;99755.72;4333715;33;33411;-87
2022/09/13 09:03:01;;;;;;;;;;;;;;;21.99;38.52;99756.72;4329709;33;32390;-87
2022/09/13 09:05:29;;;;;;;;;;;;;;;22.29;36.62;99754.91;4323680;33;33298;-88
2022/09/13 09:08:18;;;;;;;;;;;;;;;23.04;38.96;99745.12;4320212;33;34851;-86
2022/09/13 09:10:51;;;;;;;;;;;;;;;22.70;37.84;99753.69;4317860;33;33133;-86
2022/09/13 09:13:25;;;;;;;;;;;;;;;22.75;37.68;99751.41;4309482;33;32960;-85
2022/09/13 09:15:54;;;;;;;;;;;;;;;22.81;37.25;99744.59;4314165;33;34097;-88
2022/09/13 09:18:26;;;;;;;;;;;;;;;22.48;37.51;99746.78;4309320;33;33106;-88
2022/09/13 09:20:57;;;;;;;;;;;;;;;23.27;38.87;99742.03;4308881;33;32802;-88
2022/09/13 09:23:32;;;;;;;;;;;;;;;23.26;38.02;99743.84;4318507;33;34711;-88
2022/09/13 09:26:16;;;;;;;;;;;;;;;23.09;37.23;99737.44;4327202;33;33558;-83
2022/09/13 09:28:54;;;;;;;;;;;;;;;23.03;36.75;99732.66;4344009;33;33813;-85
2022/09/13 09:31:33;;;;;;;;;;;;;;;23.40;36.14;99723.66;4325047;33;34125;-85
2022/09/13 09:34:03;;;;;;;;;;;;;;;23.28;34.34;99720.31;4337722;33;34163;-83
2022/09/13 09:36:36;;;;;;;;;;;;;;;23.63;36.69;99719.53;4349337;32;33527;-85
2022/09/13 09:39:05;;;;;;;;;;;;;;;23.56;35.01;99717.63;4317824;33;33315;-88
2022/09/13 09:41:37;;;;;;;;;;;;;;;23.25;33.94;99710.69;4313418;33;32362;-87
2022/09/13 09:44:22;;;;;;;;;;;;;;;23.77;34.51;99715.50;4318321;33;32666;-90
2022/09/13 09:46:56;;;;;;;;;;;;;;;23.88;35.43;99719.78;4307033;33;32287;-88
2022/09/13 09:52:13;;;;;;;;;;;;;;;24.14;32.54;99707.22;4333971;33;33407;-88
2022/09/13 09:54:41;;;;;;;;;;;;;;;23.99;36.21;99708.78;4308689;33;32627;-88
2022/09/13 09:57:10;;;;;;;;;;;;;;;24.11;34.81;99696.75;4321051;33;33260;-88
2022/09/13 09:59:40;;;;;;;;;;;;;;;24.08;34.76;99697.06;4320628;33;33752;-89
2022/09/13 10:02:19;;;;;;;;;;;;;;;24.10;35.16;99695.06;4335307;33;31870;-88
2022/09/13 10:04:54;;;;;;;;;;;;;;;24.41;34.52;99692.81;4347591;32;33857;-89
2022/09/13 10:07:31;;;;;;;;;;;;;;;24.32;32.83;99682.06;4315209;33;33466;-85
2022/09/13 10:10:04;;;;;;;;;;;;;;;23.71;33.92;99678.38;4327503;33;33775;-88
2022/09/13 10:12:33;;;;;;;;;;;;;;;24.39;33.67;99675.06;4331586;33;32176;-88
2022/09/13 10:15:16;;;;;;;;;;;;;;;24.55;33.57;99669.78;4340262;33;33307;-88
2022/09/13 10:18:04;;;;;;;;;;;;;;;24.60;36.41;99669.31;4358806;32;34080;-88
2022/09/13 10:21:07;;;;;;;;;;;;;;;24.88;32.32;99672.66;4330355;33;32669;-88
2022/09/13 10:23:52;;;;;;;;;;;;;;;24.85;33.68;99664.88;4348699;32;33142;-88
2022/09/13 10:26:21;;;;;;;;;;;;;;;24.90;34.27;99670.63;4336154;32;33162;-88
2022/09/13 10:28:53;;;;;;;;;;;;;;;25.07;32.34;99661.62;4336795;33;33403;-88
2022/09/13 10:31:27;;;;;;;;;;;;;;;25.21;32.84;99657.41;4358107;32;33853;-88
2022/09/13 10:34:01;;;;;;;;;;;;;;;25.08;35.73;99657.06;4335462;33;33438;-89
2022/09/13 10:36:32;;;;;;;;;;;;;;;25.20;32.23;99651.16;4352941;32;32805;-88
2022/09/13 10:39:20;;;;;;;;;;;;;;;25.41;32.17;99650.72;4355875;32;34183;-89
2022/09/13 10:42:08;;;;;;;;;;;;;;;25.58;32.99;99643.47;4335043;33;33065;-88
2022/09/13 10:44:40;;;;;;;;;;;;;;;25.97;33.20;99650.97;4323026;33;32408;-88
2022/09/13 10:47:12;;;;;;;;;;;;;;;26.64;29.69;99648.03;4330293;33;32482;-88
2022/09/13 10:49:40;;;;;;;;;;;;;;;25.66;29.57;99651.59;4334840;33;33409;-88
2022/09/13 10:52:27;;;;;;;;;;;;;;;25.81;30.29;99650.97;4335112;33;33380;-88
2022/09/13 10:54:56;;;;;;;;;;;;;;;25.94;31.93;99651.31;4332511;33;33377;-88
2022/09/13 10:57:33;;;;;;;;;;;;;;;25.68;31.42;99644.16;4318165;33;33270;-89
2022/09/13 11:02:52;;;;;;;;;;;;;;;26.07;31.03;99648.94;4359716;32;34004;-88
2022/09/13 11:05:44;;;;;;;;;;;;;;;26.10;31.29;99643.19;4351635;32;32488;-88
2022/09/13 11:08:16;;;;;;;;;;;;;;;25.68;31.34;99649.56;4342861;33;33755;-88
2022/09/13 11:10:48;;;;;;;;;;;;;;;25.73;29.95;99646.34;4331425;33;33968;-88
2022/09/13 11:13:32;;;;;;;;;;;;;;;26.07;29.98;99634.56;4332501;33;34417;-88
2022/09/13 11:16:02;;;;;;;;;;;;;;;26.45;31.00;99633.03;4331435;32;32607;-88
2022/09/13 11:18:38;;;;;;;;;;;;;;;26.11;28.82;99633.19;4335478;33;32837;-88
2022/09/13 11:21:24;;;;;;;;;;;;;;;25.96;28.90;99630.34;4319652;33;33837;-88
2022/09/13 11:24:06;;;;;;;;;;;;;;;26.78;29.61;99621.06;4329061;33;33202;-88
2022/09/13 11:26:53;;;;;;;;;;;;;;;26.67;27.91;99624.12;4334652;33;31954;-88
2022/09/13 11:29:24;;;;;;;;;;;;;;;26.42;29.61;99626.03;4334638;33;33305;-89
2022/09/13 11:31:57;;;;;;;;;;;;;;;26.13;30.44;99626.59;4348012;33;34029;-87
2022/09/13 11:35:05;;;;;;;;;;;;;;;25.93;29.68;99617.16;4331176;33;32999;-88
2022/09/13 11:37:49;;;;;;;;;;;;;;;25.85;29.02;99622.56;4300913;33;32802;-88
2022/09/13 11:40:26;;;;;;;;;;;;;;;25.73;31.47;99616.59;4291773;33;33232;-89
2022/09/13 11:42:57;;;;;;;;;;;;;;;25.78;31.43;99611.59;4342459;32;34065;-89
2022/09/13 11:45:29;;;;;;;;;;;;;;;26.34;30.12;99600.84;4351237;32;34011;-89
2022/09/13 11:48:07;;;;;;;;;;;;;;;25.89;28.97;99602.28;4348911;32;32093;-89
2022/09/13 11:50:54;;;;;;;;;;;;;;;26.41;30.12;99596.44;4355293;32;32939;-88
2022/09/13 11:53:34;;;;;;;;;;;;;;;26.54;30.83;99591.38;4336235;33;33271;-89
2022/09/13 11:56:04;;;;;;;;;;;;;;;26.69;29.05;99583.34;4348680;33;33982;-88
2022/09/13 11:58:42;;;;;;;;;;;;;;;26.28;31.71;99592.41;4344190;32;33070;-88
2022/09/13 12:01:11;;;;;;;;;;;;;;;26.17;29.84;99587.38;4344460;33;33871;-89
2022/09/13 12:04:00;;;;;;;;;;;;;;;26.10;31.34;99583.66;4335051;33;32941;-88
2022/09/13 12:06:29;;;;;;;;;;;;;;;26.38;30.26;99585.94;4365871;32;33910;-88
2022/09/13 12:09:25;;;;;;;;;;;;;;;26.68;28.96;99579.78;4327681;33;32041;-89
2022/09/13 12:11:55;;;;;;;;;;;;;;;26.78;29.93;99577.72;4325010;33;33416;-89
2022/09/13 12:14:25;;;;;;;;;;;;;;;26.63;28.47;99581.31;4330979;33;33886;-86
2022/09/13 12:16:54;;;;;;;;;;;;;;;26.94;30.05;99587.63;4336285;33;34764;-86
2022/09/13 12:19:36;;;;;;;;;;;;;;;26.68;30.03;99582.50;4325048;33;32721;-85
2022/09/13 12:22:07;;;;;;;;;;;;;;;26.60;29.35;99584.41;4336545;33;34902;-84
2022/09/13 12:24:44;;;;;;;;;;;;;;;26.52;30.09;99569.00;4336819;33;34319;-87
2022/09/13 12:27:15;;;;;;;;;;;;;;;26.19;29.00;99577.19;4324315;33;33160;-86
2022/09/13 12:29:54;;;;;;;;;;;;;;;26.80;28.59;99572.09;4337878;33;31728;-86
2022/09/13 12:32:23;;;;;;;;;;;;;;;26.52;30.64;99564.44;4336486;33;34181;-86
2022/09/13 12:38:42;;;;;;;;;;;;;;;26.73;31.69;99568.41;4336137;32;33623;-86
2022/09/13 12:41:14;;;;;;;;;;;;;;;26.51;32.22;99559.22;4349851;33;33577;-85
2022/09/13 12:43:49;;;;;;;;;;;;;;;26.11;30.55;99565.53;4336438;33;34223;-85
2022/09/13 12:46:36;;;;;;;;;;;;;;;26.06;33.54;99568.78;4349570;33;34300;-86
2022/09/13 12:49:10;;;;;;;;;;;;;;;26.11;30.65;99557.44;4324254;33;34229;-86
2022/09/13 12:51:45;;;;;;;;;;;;;;;25.69;31.01;99553.94;4324197;32;32314;-86
2022/09/13 12:54:20;;;;;;;;;;;;;;;26.38;30.29;99546.19;4341974;33;34012;-85
2022/09/13 12:56:48;;;;;;;;;;;;;;;26.04;30.88;99557.28;4350458;32;34184;-86
2022/09/13 12:59:25;;;;;;;;;;;;;;;26.07;32.50;99556.94;4348332;33;34197;-86
2022/09/13 13:01:57;;;;;;;;;;;;;;;26.03;31.64;99555.59;4349398;33;33100;-86
2022/09/13 13:04:34;;;;;;;;;;;;;;;26.01;31.47;99546.81;4343700;33;34937;-86
2022/09/13 13:07:06;;;;;;;;;;;;;;;26.70;30.89;99549.81;4324413;33;33485;-86
2022/09/13 13:09:39;;;;;;;;;;;;;;;26.70;29.50;99547.94;4339297;33;33998;-87
2022/09/13 13:12:11;;;;;;;;;;;;;;;25.97;32.41;99550.84;4332088;33;31653;-86
2022/09/13 13:14:44;;;;;;;;;;;;;;;25.88;32.80;99541.94;4313959;33;33900;-85
2022/09/13 13:17:31;;;;;;;;;;;;;;;26.14;32.44;99546.28;4324782;33;34660;-85
2022/09/13 13:20:24;;;;;;;;;;;;;;;26.54;31.12;99534.50;4345251;33;34479;-85
2022/09/13 13:22:59;;;;;;;;;;;;;;;26.42;31.17;99533.16;4348225;33;34176;-85
2022/09/13 13:25:29;;;;;;;;;;;;;;;26.63;32.31;99530.72;4335759;33;34222;-85
2022/09/13 13:27:58;;;;;;;;;;;;;;;26.44;31.31;99531.13;4335752;33;33535;-85
2022/09/13 13:30:32;;;;;;;;;;;;;;;26.34;31.68;99533.19;4335570;33;34333;-85
2022/09/13 13:33:17;;;;;;;;;;;;;;;26.93;30.27;99530.91;4345649;33;34360;-86
2022/09/13 13:35:46;;;;;;;;;;;;;;;27.38;29.22;99526.53;4332524;33;32731;-84
2022/09/13 13:38:37;;;;;;;;;;;;;;;26.44;30.93;99520.31;4321633;33;33497;-85
2022/09/13 13:41:28;;;;;;;;;;;;;;;26.87;30.57;99527.06;4336555;33;34534;-85
2022/09/13 13:43:59;;;;;;;;;;;;;;;26.41;30.98;99526.06;4335771;33;32113;-85
2022/09/13 13:46:31;;;;;;;;;;;;;;;26.94;30.44;99505.50;4335913;33;34594;-85
2022/09/13 13:49:25;;;;;;;;;;;;;;;27.02;30.50;99519.00;4328609;33;35048;-85
2022/09/13 13:52:10;;;;;;;;;;;;;;;27.03;30.96;99504.41;4334365;33;33970;-85
2022/09/13 13:54:49;;;;;;;;;;;;;;;26.95;30.37;99512.59;4331913;33;33041;-85
2022/09/13 13:57:38;;;;;;;;;;;;;;;26.74;30.62;99500.53;4320436;33;34332;-85
2022/09/13 14:04:12;;;;;;;;;;;;;;;26.28;32.22;99513.91;4342975;33;35003;-84
2022/09/13 14:06:46;;;;;;;;;;;;;;;26.29;31.15;99512.87;4320972;33;33191;-84
2022/09/13 14:09:21;;;;;;;;;;;;;;;25.84;31.44;99518.09;4349124;33;34979;-85
2022/09/13 14:11:54;;;;;;;;;;;;;;;26.47;31.43;99504.56;4347773;33;33154;-85
2022/09/13 14:14:33;;;;;;;;;;;;;;;26.64;31.89;99502.62;4349080;33;34925;-84
2022/09/13 14:20:04;;;;;;;;;;;;;;;26.07;31.42;99508.25;4333077;33;33810;-85
2022/09/13 14:22:43;;;;;;;;;;;;;;;26.36;31.58;99501.38;4329762;33;33312;-85
2022/09/13 14:25:13;;;;;;;;;;;;;;;26.18;31.51;99505.16;4335220;33;33194;-85
2022/09/13 14:27:44;;;;;;;;;;;;;;;26.21;31.82;99488.59;4323568;33;32396;-85
2022/09/13 14:30:18;;;;;;;;;;;;;;;26.54;32.54;99485.75;4336208;33;34776;-85
2022/09/13 14:32:50;;;;;;;;;;;;;;;26.73;30.41;99481.72;4335552;33;34319;-85
2022/09/13 14:35:32;;;;;;;;;;;;;;;26.60;30.26;99482.34;4342881;33;34300;-84
2022/09/13 14:38:12;;;;;;;;;;;;;;;26.22;32.13;99484.84;4347509;33;33291;-84
2022/09/13 14:40:45;;;;;;;;;;;;;;;26.00;33.54;99491.00;4335227;33;32869;-85
2022/09/13 14:43:21;;;;;;;;;;;;;;;26.26;32.96;99485.34;4347292;33;34630;-85
2022/09/13 14:46:00;;;;;;;;;;;;;;;26.07;33.89;99481.19;4335783;33;34907;-85
2022/09/13 14:48:36;;;;;;;;;;;;;;;26.16;31.12;99482.84;4311293;33;32599;-85
2022/09/13 14:51:24;;;;;;;;;;;;;;;25.99;32.37;99479.34;4323080;33;34005;-85
2022/09/13 14:54:10;;;;;;;;;;;;;;;26.26;31.90;99475.37;4347640;33;33969;-85
2022/09/13 14:57:00;;;;;;;;;;;;;;;25.76;32.92;99468.41;4347757;33;34216;-85
2022/09/13 14:59:32;;;;;;;;;;;;;;;25.59;32.75;99468.56;4335033;33;33467;-85
2022/09/13 15:02:16;;;;;;;;;;;;;;;26.11;31.29;99465.44;4322848;33;34365;-85
2022/09/13 15:04:47;;;;;;;;;;;;;;;26.07;31.58;99464.97;4307778;33;34054;-85
2022/09/13 15:07:18;;;;;;;;;;;;;;;25.90;31.99;99468.72;4317801;33;34481;-85
2022/09/13 15:09:47;;;;;;;;;;;;;;;25.67;32.71;99477.53;4321384;33;31919;-85
2022/09/13 15:12:24;;;;;;;;;;;;;;;25.36;31.99;99469.31;4335525;33;35032;-84
2022/09/13 15:15:11;;;;;;;;;;;;;;;25.62;31.99;99462.84;4316563;33;34951;-85
2022/09/13 15:18:06;;;;;;;;;;;;;;;25.62;32.17;99458.28;4331610;33;34330;-85
2022/09/13 15:20:45;;;;;;;;;;;;;;;25.52;32.72;99463.03;4299104;33;33063;-85
2022/09/13 15:23:37;;;;;;;;;;;;;;;25.34;34.02;99457.81;4330230;33;35038;-85
2022/09/13 15:26:25;;;;;;;;;;;;;;;25.48;32.87;99457.09;4329927;33;34025;-84
2022/09/13 15:29:04;;;;;;;;;;;;;;;25.36;32.71;99450.38;4332517;33;34875;-85
2022/09/13 15:31:35;;;;;;;;;;;;;;;25.59;33.58;99439.72;4340057;33;33406;-84
2022/09/13 15:34:16;;;;;;;;;;;;;;;25.46;34.46;99439.38;4336836;33;34825;-84
2022/09/13 15:36:47;;;;;;;;;;;;;;;25.63;33.40;99434.78;4336464;33;33920;-84
2022/09/13 15:39:16;;;;;;;;;;;;;;;25.78;33.07;99431.25;4318777;33;33288;-84
2022/09/13 15:41:58;;;;;;;;;;;;;;;25.65;33.83;99428.19;4319868;33;33129;-84
2022/09/13 15:44:35;;;;;;;;;;;;;;;25.48;35.81;99437.34;4334060;33;34214;-84
2022/09/13 15:49:49;;;;;;;;;;;;;;;25.48;36.45;99431.94;4310051;33;33168;-84
2022/09/13 15:52:23;;;;;;;;;;;;;;;25.32;36.99;99432.81;4319481;33;33082;-84
2022/09/13 15:57:29;;;;;;;;;;;;;;;25.43;35.37;99434.31;4295476;33;33757;-85
2022/09/13 16:00:00;;;;;;;;;;;;;;;25.39;34.98;99430.25;4319207;33;34169;-84
2022/09/13 16:02:36;;;;;;;;;;;;;;;25.24;36.05;99425.56;4326956;33;32457;-84
2022/09/13 16:05:07;;;;;;;;;;;;;;;25.38;35.33;99421.31;4339270;33;35048;-85
2022/09/13 16:07:36;;;;;;;;;;;;;;;25.38;36.05;99409.66;4356508;32;33824;-85
2022/09/13 16:10:15;;;;;;;;;;;;;;;25.41;36.08;99414.75;4353184;32;34091;-84
2022/09/13 16:12:44;;;;;;;;;;;;;;;25.36;37.00;99417.13;4347850;32;32951;-84
2022/09/13 16:15:19;;;;;;;;;;;;;;;25.30;38.28;99413.22;4342732;33;34916;-84
2022/09/13 16:17:47;;;;;;;;;;;;;;;25.27;38.98;99409.00;4326904;33;32992;-84
2022/09/13 16:20:19;;;;;;;;;;;;;;;25.32;38.66;99411.19;4344320;33;33944;-84
2022/09/13 16:25:30;;;;;;;;;;;;;;;24.76;41.16;99416.41;4344346;33;35009;-83
2022/09/13 16:28:16;;;;;;;;;;;;;;;25.03;40.45;99406.31;4341022;33;35811;-87
2022/09/13 16:30:53;;;;;;;;;;;;;;;24.87;41.36;99404.41;4336602;33;33907;-84
2022/09/13 16:33:30;;;;;;;;;;;;;;;24.66;42.34;99404.91;4336653;33;33448;-88
2022/09/13 16:35:59;;;;;;;;;;;;;;;24.68;42.57;99402.03;4331654;33;33634;-84
2022/09/13 16:38:47;;;;;;;;;;;;;;;24.64;42.76;99409.66;4362268;32;34088;-84
2022/09/13 16:41:17;;;;;;;;;;;;;;;24.69;42.42;99407.31;4342933;32;34143;-84
2022/09/13 16:46:24;;;;;;;;;;;;;;;24.54;42.75;99403.53;4338003;33;33721;-84
2022/09/13 16:48:54;;;;;;;;;;;;;;;24.17;43.33;99399.41;4340485;32;32818;-85
2022/09/13 16:51:23;;;;;;;;;;;;;;;23.91;43.70;99395.91;4339808;33;33829;-85
2022/09/13 16:53:53;;;;;;;;;;;;;;;24.11;43.51;99405.44;4338231;32;33695;-85
2022/09/13 16:56:22;;;;;;;;;;;;;;;24.07;43.22;99404.09;4333121;33;33315;-85
2022/09/13 16:58:53;;;;;;;;;;;;;;;24.00;43.49;99409.28;4338610;32;34133;-85
2022/09/13 17:01:22;;;;;;;;;;;;;;;23.84;44.02;99403.81;4352394;32;34718;-85
2022/09/13 17:04:05;;;;;;;;;;;;;;;23.85;43.83;99404.66;4340500;32;32629;-85
2022/09/13 17:06:33;;;;;;;;;;;;;;;23.66;44.44;99406.59;4347095;32;34009;-85
2022/09/13 17:09:04;;;;;;;;;;;;;;;23.65;45.08;99415.69;4338417;33;34117;-85
2022/09/13 17:14:15;;;;;;;;;;;;;;;23.41;46.10;99413.66;4324983;33;32293;-85
2022/09/13 17:19:34;;;;;;;;;;;;;;;23.36;46.12;99424.06;4328732;33;33160;-85
2022/09/13 17:22:10;;;;;;;;;;;;;;;23.19;46.08;99423.09;4340697;33;34903;-85
2022/09/13 17:24:49;;;;;;;;;;;;;;;23.13;46.37;99420.19;4335070;33;34951;-85
2022/09/13 17:27:23;;;;;;;;;;;;;;;22.62;47.09;99411.78;4341226;33;35394;-85
2022/09/13 17:29:56;;;;;;;;;;;;;;;22.69;46.92;99420.97;4339835;33;34287;-85
2022/09/13 17:32:27;;;;;;;;;;;;;;;22.83;46.30;99418.72;4336216;33;32802;-85
2022/09/13 17:35:03;;;;;;;;;;;;;;;22.66;47.00;99431.19;4326035;33;32611;-85
2022/09/13 17:37:42;;;;;;;;;;;;;;;22.64;46.45;99425.94;4332831;33;33849;-85
2022/09/13 17:40:18;;;;;;;;;;;;;;;22.38;47.21;99419.63;4334511;33;35035;-85
2022/09/13 17:42:50;;;;;;;;;;;;;;;22.41;46.81;99416.66;4334048;33;32848;-87
2022/09/13 17:45:26;;;;;;;;;;;;;;;22.12;47.89;99414.09;4335260;33;34224;-85
2022/09/13 17:50:40;;;;;;;;;;;;;;;22.17;47.14;99412.69;4350601;32;33369;-85
2022/09/13 17:53:11;;;;;;;;;;;;;;;22.24;46.69;99418.28;4321424;33;34068;-86
2022/09/13 17:58:28;;;;;;;;;;;;;;;22.18;46.87;99413.53;4342083;33;34665;-85
2022/09/13 18:01:06;;;;;;;;;;;;;;;21.89;47.50;99413.66;4337450;33;35154;-85
2022/09/13 18:03:46;;;;;;;;;;;;;;;22.08;46.62;99424.31;4359788;32;33721;-85
2022/09/13 18:06:26;;;;;;;;;;;;;;;22.08;46.48;99423.47;4351553;32;33182;-85
2022/09/13 18:08:57;;;;;;;;;;;;;;;22.00;46.59;99418.81;4355491;32;34039;-85
2022/09/13 18:11:32;;;;;;;;;;;;;;;22.06;46.54;99415.53;4337251;32;35936;-85
2022/09/13 18:14:06;;;;;;;;;;;;;;;22.13;46.92;99422.03;4362870;32;34152;-85
2022/09/13 18:16:54;;;;;;;;;;;;;;;22.00;47.38;99426.88;4362940;32;34175;-85
2022/09/13 18:19:35;;;;;;;;;;;;;;;21.89;47.94;99425.25;4345783;32;35779;-85
2022/09/13 18:22:19;;;;;;;;;;;;;;;21.92;47.79;99418.72;4352037;32;35061;-85
2022/09/13 18:24:53;;;;;;;;;;;;;;;21.90;47.73;99431.47;4332013;33;33754;-85
2022/09/13 18:27:36;;;;;;;;;;;;;;;21.84;48.02;99429.34;4356323;32;33511;-85
2022/09/13 18:30:15;;;;;;;;;;;;;;;21.85;48.21;99439.97;4347630;32;34971;-84
2022/09/13 18:32:55;;;;;;;;;;;;;;;21.80;48.55;99441.41;4336653;33;34265;-85
2022/09/13 18:35:34;;;;;;;;;;;;;;;21.75;48.59;99438.31;4359727;32;33620;-85
2022/09/13 18:38:04;;;;;;;;;;;;;;;21.69;48.92;99445.94;4335432;33;34191;-85
2022/09/13 18:40:34;;;;;;;;;;;;;;;21.72;49.17;99450.19;4336521;33;33704;-85
2022/09/13 18:43:16;;;;;;;;;;;;;;;21.66;49.82;99448.94;4334686;33;35034;-85
2022/09/13 18:46:03;;;;;;;;;;;;;;;21.65;49.85;99460.69;4325538;33;35958;-85
2022/09/13 18:48:45;;;;;;;;;;;;;;;21.50;50.46;99453.22;4337317;32;33649;-85
